»·PEaware :: N461D KSBD-KSNA

N461D :: KSBD-KSNA

FLIGHT INFORMATION

Flight Status: Arrived
Operator: Privately registered:
United States
More flights under this callsign
Pilot: Daniel R. (17770)
Aircraft: CESSNA 172 SKYHAWK
(C172)
More flights by this aircraft type
Origin: KSBD San Bernardino Intl
United States
Destination: KSNA John Wayne-Orange Co
United States
More flights between these airports :: More routes between these airports
Route: PDZ PDZ270R V363 POXKU V8 SLI
File this flight plan on PilotEdge
Remarks: TEC route ONTN10
Altitude:
(Current/Filed)
4,000ft
Speed:
(Current/Filed)
120kts
Departed: 11-Jan-18 08:43 PM
Arrived: 11-Jan-18 09:09 PM
Distance/Time
Traveled:
41nm/0:26
Distance/Time
To Go:
Arrived

Flight Plot

Page will automatically refresh every two minutes.


Map Options




Map Legend


Flown Route
Filed Route
Departure Airport
Arrival Airport
Navaid (VOR, NDB)
Fix

Horizontal Profiles

Position Reports

Time Latitude Longitude Heading Altitude Ground
Speed
11-Jan-18 20:13 34.101568 -117.223826 273 1161ft 0kts
11-Jan-18 20:14 34.101568 -117.223826 273 1161ft 0kts
11-Jan-18 20:15 34.101568 -117.223826 273 1161ft 0kts
11-Jan-18 20:16 34.101568 -117.223826 273 1161ft 0kts
11-Jan-18 20:17 34.101568 -117.223826 273 1161ft 0kts
11-Jan-18 20:18 34.101568 -117.223826 273 1161ft 0kts
11-Jan-18 20:19 34.101568 -117.223826 273 1161ft 0kts
11-Jan-18 20:20 34.101568 -117.223826 273 1161ft 0kts
11-Jan-18 20:21 34.101568 -117.223826 273 1161ft 0kts
11-Jan-18 20:22 34.101568 -117.223826 273 1161ft 0kts
11-Jan-18 20:23 34.101568 -117.223826 273 1161ft 0kts
11-Jan-18 20:24 34.101568 -117.223826 273 1161ft 0kts
11-Jan-18 20:25 34.101568 -117.223826 273 1161ft 0kts
11-Jan-18 20:26 34.101568 -117.223826 273 1161ft 0kts
11-Jan-18 20:27 34.101568 -117.223826 273 1161ft 0kts
11-Jan-18 20:28 34.101568 -117.223826 273 1161ft 0kts
11-Jan-18 20:29 34.101568 -117.223826 273 1161ft 0kts
11-Jan-18 20:30 34.101568 -117.223826 273 1161ft 0kts
11-Jan-18 20:31 34.101568 -117.223826 273 1161ft 0kts
11-Jan-18 20:32 34.101568 -117.223826 273 1161ft 0kts
11-Jan-18 20:33 34.101568 -117.223826 273 1161ft 0kts
11-Jan-18 20:34 34.101568 -117.223826 273 1161ft 0kts
11-Jan-18 20:35 34.101568 -117.223826 273 1161ft 0kts
11-Jan-18 20:36 34.101568 -117.223826 273 1161ft 0kts
11-Jan-18 20:37 34.101568 -117.223826 273 1161ft 0kts
11-Jan-18 20:38 34.101629 -117.224317 259 1161ft 5kts
11-Jan-18 20:39 34.099659 -117.226994 241 1161ft 18kts
11-Jan-18 20:40 34.097645 -117.233176 250 1161ft 21kts
11-Jan-18 20:41 34.095580 -117.240133 250 1161ft 22kts
11-Jan-18 20:42 34.093490 -117.247211 250 1161ft 22kts
11-Jan-18 20:43 34.091866 -117.251565 126 1161ft 0kts
11-Jan-18 20:44 34.091866 -117.251565 126 1161ft 0kts
11-Jan-18 20:45 34.091866 -117.251565 128 1161ft 0kts
11-Jan-18 20:46 34.091866 -117.251565 128 1161ft 0kts
11-Jan-18 20:47 34.091883 -117.251442 73 1161ft 7kts
11-Jan-18 20:48 34.090855 -117.249875 74 1161ft 17kts
11-Jan-18 20:49 34.096166 -117.230064 72 1534ft 91kts
11-Jan-18 20:50 34.089168 -117.206326 181 2362ft 86kts
11-Jan-18 20:51 34.077381 -117.226265 230 3348ft 65kts
11-Jan-18 20:52 34.067497 -117.244873 232 4026ft 68kts
11-Jan-18 20:53 34.054879 -117.268661 235 4557ft 100kts
11-Jan-18 20:54 34.039485 -117.298308 237 5160ft 108kts
11-Jan-18 20:55 34.024896 -117.326284 238 5713ft 109kts
11-Jan-18 20:56 34.007587 -117.359433 239 6008ft 131kts
11-Jan-18 20:57 33.987505 -117.397876 240 6005ft 137kts
11-Jan-18 20:58 33.967239 -117.436720 241 6003ft 136kts
11-Jan-18 20:59 33.947032 -117.475204 241 6002ft 135kts
11-Jan-18 21:00 33.926954 -117.513334 241 6001ft 134kts
11-Jan-18 21:01 33.923828 -117.553941 286 5903ft 125kts
11-Jan-18 21:02 33.932196 -117.593799 287 5400ft 123kts
11-Jan-18 21:03 33.932918 -117.632785 233 4816ft 131kts
11-Jan-18 21:04 33.909221 -117.665977 231 4226ft 131kts
11-Jan-18 21:05 33.886821 -117.697486 231 3995ft 114kts
11-Jan-18 21:06 33.866710 -117.725341 230 3994ft 109kts
11-Jan-18 21:07 33.846668 -117.752815 230 3994ft 111kts
11-Jan-18 21:08 33.822169 -117.775648 210 3968ft 116kts
11-Jan-18 21:09 33.793042 -117.794312 209 2941ft 120kts
11-Jan-18 21:10 33.766223 -117.811364 208 1952ft 96kts
11-Jan-18 21:11 33.742944 -117.826126 208 1441ft 94kts
11-Jan-18 21:12 33.719810 -117.840818 208 942ft 93kts
11-Jan-18 21:13 33.698603 -117.854280 208 469ft 82kts
11-Jan-18 21:14 33.678757 -117.866895 208 64ft 70kts
11-Jan-18 21:15 33.674326 -117.868409 148 60ft 0kts
11-Jan-18 21:16 33.672255 -117.867886 216 60ft 22kts
11-Jan-18 21:17 33.667542 -117.872570 216 60ft 10kts
11-Jan-18 21:18 33.665145 -117.873299 228 60ft 0kts
11-Jan-18 21:19 33.665141 -117.873304 221 60ft 0kts
11-Jan-18 21:20 33.665141 -117.873304 221 60ft 0kts
11-Jan-18 21:21 33.665141 -117.873304 221 60ft 0kts

Navigation Log

Ident Type
1. KSBD Airport
2. PDZ Navaid
3. POXKU Fix
4. OLLIE Fix
5. AHEIM Fix
6. SLI Navaid
7. KSNA Airport